This is the latest recevied weather packets stored in our database for station/object W4HIX-2. If no packets are shown the sender has not sent any weather packets the latest 10 day(s).
| Time | Temp. | Humidity | Pressure | Rain* | Wind** | Luminosity | Snow |
|---|---|---|---|---|---|---|---|
| 1777923915 | 28.33° C | 54% | 1013.7 hPa | 0 mm | - | - | - |
| 1777921515 | 28.33° C | 47% | 1014.2 hPa | 0 mm | - | - | - |
| 1777915537 | 27.78° C | 51% | 1016 hPa | 0 mm | - | - | - |
| 1777914917 | 27.78° C | 51% | 1016 hPa | 0 mm | - | - | - |
| 1777911917 | 26.67° C | 56% | 1016.5 hPa | 0 mm | - | - | - |
| 1777907116 | 25.56° C | 61% | 1017 hPa | 0 mm | - | - | - |
| 1777903517 | 24.44° C | 69% | 1016.8 hPa | 0 mm | - | - | - |
| 1777901717 | 23.33° C | 73% | 1016.6 hPa | 0 mm | - | - | - |
| 1777896316 | 20.56° C | 80% | 1016.1 hPa | 0 mm | - | - | - |
| 1777893916 | 20° C | 81% | 1015.8 hPa | 0 mm | - | - | - |
| 1777891517 | 20° C | 82% | 1015.3 hPa | 0 mm | - | - | - |
| 1777887316 | 20° C | 83% | 1015 hPa | 0 mm | - | - | - |
| 1777886716 | 20° C | 83% | 1015.1 hPa | 0 mm | - | - | - |
| 1777883116 | 20.56° C | 82% | 1015.1 hPa | 0 mm | - | - | - |
| 1777882516 | 20.56° C | 82% | 1015 hPa | 0 mm | - | - | - |
| 1777878316 | 20.56° C | 83% | 1016.1 hPa | 0 mm | - | - | - |
| 1777875916 | 20.56° C | 83% | 1015.8 hPa | 0 mm | - | - | - |
| 1777872936 | 20.56° C | 83% | 1016.1 hPa | 0 mm | - | - | - |
| 1777871116 | 21.11° C | 83% | 1016.5 hPa | 0 mm | - | - | - |
| 1777868136 | 21.67° C | 81% | 1016.7 hPa | 0 mm | - | - | - |
| 1777865715 | 21.67° C | 80% | 1016.7 hPa | 0 mm | - | - | - |
| 1777862116 | 22.78° C | 78% | 1016.5 hPa | 0 mm | - | - | - |
| 1777861516 | 22.78° C | 77% | 1016.3 hPa | 0 mm | - | - | - |
| 1777859735 | 23.33° C | 76% | 1015.9 hPa | 0 mm | - | - | - |
| 1777858516 | 23.33° C | 75% | 1015.9 hPa | 0 mm | - | - | - |
* Rain latest hour (hover to see other rain measurements)
** Current wind speed in m/s (hover to see current wind gust speed)